Portada
METAR-TAF:

METAR-TAF

Aeroports :

Batman, Turquia

latitud: 37-52N, longitud: 041-10E, altitud: 540 m

Observació

L'informe es va fer fa 43 minuts, a les 20:20 UTC
Vent 5 kt del Sud/Sud-Oest
Temperatura 24°C
Humitat 54%
Pressió 1006 hPa
Visibilitat 10 km o més
sense núvols per sota de 1500 mi sense presència de cumulonimbus.

METAR: LTCJ 192020Z 20005KT CAVOK 24/14 Q1006 RMK RWY20 20006KT

Hora: 00:03 (21:03 UTC)

Pronòstic

L'informe es va fer fa 4 hores i 23 minuts, a les 16:40 UTC
Pronòstic vàlid del 19 a les 18 UTC al 20 a les 18 UTC
Vent 2 kt amb direcció variable
Visibilitat 10 km o més
sense núvols per sota de 1500 mi sense presència de cumulonimbus.

TAF: LTCJ 191640Z 1918/2018 VRB02KT CAVOK

Observacions i pronòstics meteorològics de més de 4000 aeroports (METAR i TAF).

Les estacions disponibles són els punts grocs i vermells al mapa.

Posi el ratolí al punt desitjat per veure el nom de l'estació.

Feu clic per veure les observacions i els pronòstics meteorològics.

Per canviar el mapa: feu clic els botons verds amb una creu de color negre per apropar; al botó verd amb un guió per allunyar la imatge; o en les fletxes verdes per a mapes adjacents.


METAR-TAF: